createdAt,value
2018-10-06T00:00:06.054Z,13.28
2018-10-06T00:02:34.477Z,13.40
2018-10-06T00:05:02.060Z,12.85
2018-10-06T00:07:29.621Z,12.60
2018-10-06T00:09:57.612Z,13.18
2018-10-06T00:12:25.165Z,15.03
2018-10-06T00:14:52.685Z,12.58
2018-10-06T00:17:20.245Z,12.13
2018-10-06T00:19:47.781Z,11.10
2018-10-06T00:22:15.369Z,11.97
2018-10-06T00:24:42.891Z,14.07
2018-10-06T00:27:10.405Z,11.83
2018-10-06T00:29:38.030Z,12.00
2018-10-06T00:32:05.567Z,13.53
2018-10-06T00:34:33.130Z,14.00
2018-10-06T00:37:00.635Z,13.78
2018-10-06T00:39:28.183Z,12.30
2018-10-06T00:41:55.722Z,12.70
2018-10-06T00:44:23.291Z,13.20
2018-10-06T00:46:50.892Z,12.60
2018-10-06T00:49:18.515Z,11.95
2018-10-06T00:51:46.063Z,12.10
2018-10-06T00:54:13.626Z,12.35
2018-10-06T00:56:41.286Z,11.25
2018-10-06T00:59:08.826Z,11.30
2018-10-06T01:01:36.365Z,13.03
2018-10-06T01:04:03.921Z,12.63
2018-10-06T01:06:31.502Z,12.40
2018-10-06T01:08:59.072Z,10.88
2018-10-06T01:11:26.608Z,11.30
2018-10-06T01:13:54.405Z,11.83
2018-10-06T01:16:21.945Z,11.20
2018-10-06T01:18:49.500Z,11.00
2018-10-06T01:21:17.046Z,11.35
2018-10-06T01:23:44.574Z,11.33
2018-10-06T01:26:12.173Z,11.73
2018-10-06T01:28:39.679Z,11.73
2018-10-06T01:31:07.245Z,11.78
2018-10-06T01:33:34.771Z,11.93
2018-10-06T01:36:02.332Z,11.83
2018-10-06T01:38:29.850Z,11.65
2018-10-06T01:40:57.406Z,12.00
2018-10-06T01:43:24.930Z,11.57
2018-10-06T01:45:52.473Z,10.58
2018-10-06T01:48:19.969Z,10.05
2018-10-06T01:50:47.698Z,10.65
2018-10-06T01:53:15.291Z,10.80
2018-10-06T01:55:42.841Z,11.55
2018-10-06T01:58:10.382Z,10.28
2018-10-06T02:00:37.977Z,10.60
2018-10-06T02:03:05.607Z,10.63
2018-10-06T02:05:33.166Z,11.28
2018-10-06T02:08:00.720Z,10.80
2018-10-06T02:10:28.292Z,11.48
2018-10-06T02:12:55.843Z,9.38
2018-10-06T02:15:23.459Z,10.00
2018-10-06T02:17:51.026Z,10.98
2018-10-06T02:20:18.596Z,9.70
2018-10-06T02:22:46.116Z,10.10
2018-10-06T02:25:13.730Z,10.10
2018-10-06T02:27:41.268Z,9.90
2018-10-06T02:30:08.869Z,10.32
2018-10-06T02:32:36.375Z,11.05
2018-10-06T02:35:03.937Z,9.40
2018-10-06T02:37:31.509Z,9.85
2018-10-06T02:39:59.093Z,9.33
2018-10-06T02:42:26.697Z,9.95
2018-10-06T02:44:54.217Z,10.45
2018-10-06T02:47:21.782Z,9.58
2018-10-06T02:49:49.297Z,9.80
2018-10-06T02:52:16.837Z,9.60
2018-10-06T02:54:44.412Z,9.83
2018-10-06T02:57:11.927Z,10.43
2018-10-06T02:59:39.452Z,9.35
2018-10-06T03:02:07.206Z,11.35
2018-10-06T03:04:34.730Z,9.95
2018-10-06T03:07:02.230Z,9.60
2018-10-06T03:09:29.790Z,10.20
2018-10-06T03:11:57.300Z,10.43
2018-10-06T03:14:24.835Z,9.35
2018-10-06T03:16:52.370Z,8.88
2018-10-06T03:19:19.878Z,9.98
2018-10-06T03:21:47.411Z,10.15
2018-10-06T03:24:14.994Z,9.98
2018-10-06T03:26:42.577Z,8.10
2018-10-06T03:29:10.124Z,8.75
2018-10-06T03:31:37.641Z,9.03
2018-10-06T03:34:05.194Z,9.45
2018-10-06T03:36:32.734Z,8.73
2018-10-06T03:39:00.305Z,8.18
2018-10-06T03:41:27.836Z,7.85
2018-10-06T03:43:55.379Z,8.70
2018-10-06T03:46:22.921Z,6.65
2018-10-06T03:48:50.481Z,10.58
2018-10-06T03:51:18.030Z,10.43
2018-10-06T03:53:45.609Z,11.30
2018-10-06T03:56:13.163Z,9.60
2018-10-06T03:58:40.767Z,8.70
2018-10-06T04:01:08.355Z,7.10
2018-10-06T04:03:35.909Z,6.70
2018-10-06T04:06:03.608Z,6.47
2018-10-06T04:08:31.121Z,8.30
2018-10-06T04:10:58.683Z,7.20
2018-10-06T04:13:26.290Z,7.53
2018-10-06T04:15:53.805Z,6.33
2018-10-06T04:18:21.318Z,6.20
2018-10-06T04:20:48.837Z,6.50
2018-10-06T04:23:16.368Z,6.60
2018-10-06T04:25:43.955Z,6.40
2018-10-06T04:28:11.495Z,6.10
2018-10-06T04:30:39.097Z,5.90
2018-10-06T04:33:06.614Z,6.20
2018-10-06T04:35:34.179Z,7.30
2018-10-06T04:38:01.761Z,6.80
2018-10-06T04:40:29.287Z,7.13
2018-10-06T04:42:56.814Z,6.97
2018-10-06T04:45:24.340Z,5.93
2018-10-06T04:47:51.861Z,5.80
2018-10-06T04:50:19.425Z,5.10
2018-10-06T04:52:46.975Z,6.33
2018-10-06T04:55:14.548Z,5.20
2018-10-06T04:57:42.115Z,5.07
2018-10-06T05:00:09.624Z,5.47
2018-10-06T05:02:37.206Z,5.27
2018-10-06T05:05:04.749Z,4.93
2018-10-06T05:07:32.315Z,6.70
2018-10-06T05:09:59.844Z,5.20
2018-10-06T05:12:27.393Z,5.57
2018-10-06T05:14:54.944Z,5.63
2018-10-06T05:17:22.511Z,5.40
2018-10-06T05:19:50.033Z,5.30
2018-10-06T05:22:17.568Z,5.83
2018-10-06T05:24:45.093Z,4.50
2018-10-06T05:27:12.628Z,5.43
2018-10-06T05:29:40.161Z,5.13
2018-10-06T05:32:07.688Z,4.90
2018-10-06T05:34:35.189Z,4.43
2018-10-06T05:37:02.735Z,5.00
2018-10-06T05:39:30.235Z,4.77
2018-10-06T05:41:57.772Z,5.10
2018-10-06T05:44:25.302Z,5.70
2018-10-06T05:46:52.852Z,4.90
2018-10-06T05:49:26.546Z,4.77
2018-10-06T05:52:00.299Z,4.50
2018-10-06T05:54:34.038Z,4.77
2018-10-06T05:57:08.010Z,4.90
2018-10-06T05:59:35.574Z,6.40
2018-10-06T06:02:03.190Z,6.70
2018-10-06T06:04:30.788Z,8.37
2018-10-06T06:06:58.288Z,9.30
2018-10-06T06:09:25.842Z,7.53
2018-10-06T06:11:53.387Z,6.70
2018-10-06T06:14:20.929Z,6.05
2018-10-06T06:16:48.455Z,7.10
2018-10-06T06:19:16.030Z,7.20
2018-10-06T06:21:43.664Z,7.10
2018-10-06T06:24:11.159Z,6.87
2018-10-06T06:26:38.703Z,9.20
2018-10-06T06:29:06.263Z,6.43
2018-10-06T06:31:33.792Z,5.60
2018-10-06T06:34:01.367Z,6.40
2018-10-06T06:36:28.883Z,6.20
2018-10-06T06:38:56.451Z,6.97
2018-10-06T06:41:24.003Z,6.23
2018-10-06T06:43:51.539Z,5.80
2018-10-06T06:46:19.095Z,6.43
2018-10-06T06:48:46.753Z,6.33
2018-10-06T06:51:14.421Z,7.20
2018-10-06T06:53:41.951Z,6.20
2018-10-06T06:56:09.483Z,7.90
2018-10-06T06:58:37.118Z,16.32
2018-10-06T07:01:04.750Z,10.13
2018-10-06T07:03:32.335Z,7.50
2018-10-06T07:05:59.911Z,6.83
2018-10-06T07:08:27.435Z,6.33
2018-10-06T07:10:54.968Z,7.00
2018-10-06T07:13:22.515Z,6.23
2018-10-06T07:15:50.096Z,7.60
2018-10-06T07:18:17.628Z,7.37
2018-10-06T07:20:45.238Z,7.13
2018-10-06T07:23:12.801Z,6.10
2018-10-06T07:25:40.449Z,8.10
2018-10-06T07:28:07.892Z,7.07
2018-10-06T07:30:35.447Z,7.60
2018-10-06T07:33:02.990Z,6.30
2018-10-06T07:35:30.581Z,6.63
2018-10-06T07:37:58.157Z,7.80
2018-10-06T07:40:25.706Z,8.30
2018-10-06T07:42:53.269Z,7.77
2018-10-06T07:45:20.849Z,6.50
2018-10-06T07:47:48.455Z,6.17
2018-10-06T07:50:16.029Z,6.03
2018-10-06T07:52:43.624Z,6.77
2018-10-06T07:55:11.199Z,8.00
2018-10-06T07:57:38.876Z,5.90
2018-10-06T08:00:06.555Z,7.13
2018-10-06T08:02:34.108Z,7.20
2018-10-06T08:05:01.745Z,79.13
2018-10-06T08:07:29.278Z,76.50
2018-10-06T08:09:56.806Z,10.40
2018-10-06T08:12:24.352Z,9.60
2018-10-06T08:14:51.872Z,9.00
2018-10-06T08:17:19.437Z,8.47
2018-10-06T08:19:47.012Z,7.40
2018-10-06T08:22:14.585Z,7.20
2018-10-06T08:24:42.238Z,7.03
2018-10-06T08:27:09.789Z,6.43
2018-10-06T08:29:37.386Z,6.40
2018-10-06T08:32:04.911Z,5.70
2018-10-06T08:34:32.478Z,7.20
2018-10-06T08:37:00.036Z,6.90
2018-10-06T08:39:27.618Z,7.43
2018-10-06T08:41:55.223Z,7.80
2018-10-06T08:44:22.778Z,8.50
2018-10-06T08:46:50.334Z,8.30
2018-10-06T08:49:17.865Z,8.50
2018-10-06T08:51:45.435Z,8.70
2018-10-06T08:54:12.991Z,8.80
2018-10-06T08:56:40.543Z,6.67
2018-10-06T08:59:08.088Z,7.40
2018-10-06T09:01:35.702Z,6.30
2018-10-06T09:04:03.287Z,6.77
2018-10-06T09:06:30.825Z,8.17
2018-10-06T09:08:58.385Z,7.27
2018-10-06T09:11:26.009Z,7.57
2018-10-06T09:13:53.546Z,6.00
2018-10-06T09:16:21.102Z,6.03
2018-10-06T09:18:48.642Z,6.80
2018-10-06T09:21:16.237Z,5.80
2018-10-06T09:23:43.831Z,7.20
2018-10-06T09:26:11.421Z,6.07
2018-10-06T09:28:39.003Z,5.77
2018-10-06T09:31:06.591Z,9.00
2018-10-06T09:33:34.120Z,5.73
2018-10-06T09:36:01.703Z,7.20
2018-10-06T09:38:29.229Z,5.90
2018-10-06T09:40:56.793Z,5.80
2018-10-06T09:43:24.292Z,6.20
2018-10-06T09:45:52.192Z,6.77
2018-10-06T09:48:19.781Z,6.20
2018-10-06T09:50:47.322Z,6.00
2018-10-06T09:53:14.872Z,6.90
2018-10-06T09:55:42.419Z,7.30
2018-10-06T09:58:10.019Z,5.43
2018-10-06T10:00:43.123Z,5.70
2018-10-06T10:03:16.105Z,5.90
2018-10-06T10:05:47.384Z,6.10
2018-10-06T10:08:14.955Z,4.27
2018-10-06T10:10:42.456Z,3.90
2018-10-06T10:13:10.024Z,3.83
2018-10-06T10:15:37.567Z,3.87
2018-10-06T10:18:05.328Z,4.20
2018-10-06T10:20:32.818Z,3.50
2018-10-06T10:23:00.701Z,4.00
2018-10-06T10:25:28.300Z,3.60
2018-10-06T10:27:55.847Z,3.53
2018-10-06T10:30:23.410Z,4.40
2018-10-06T10:32:50.963Z,3.50
2018-10-06T10:35:18.570Z,4.67
2018-10-06T10:37:46.193Z,4.50
2018-10-06T10:40:13.748Z,3.80
2018-10-06T10:42:41.326Z,3.50
2018-10-06T10:45:08.921Z,3.50
2018-10-06T10:47:36.475Z,3.27
2018-10-06T10:50:04.089Z,3.67
2018-10-06T10:52:31.668Z,4.13
2018-10-06T10:54:59.496Z,3.43
2018-10-06T10:57:27.264Z,3.90
2018-10-06T10:59:54.976Z,3.20
2018-10-06T11:02:22.386Z,3.57
2018-10-06T11:04:49.996Z,2.67
2018-10-06T11:07:17.512Z,3.00
2018-10-06T11:09:45.102Z,3.57
2018-10-06T11:12:12.637Z,2.83
2018-10-06T11:14:40.224Z,2.80
2018-10-06T11:17:07.842Z,3.47
2018-10-06T11:19:35.464Z,2.33
2018-10-06T11:22:03.002Z,2.73
2018-10-06T11:24:30.581Z,3.10
2018-10-06T11:26:58.120Z,3.03
2018-10-06T11:29:25.717Z,2.70
2018-10-06T11:31:53.247Z,2.83
2018-10-06T11:34:20.792Z,2.53
2018-10-06T11:36:48.355Z,2.30
2018-10-06T11:39:15.959Z,3.20
2018-10-06T11:41:43.546Z,3.17
2018-10-06T11:44:11.121Z,3.40
2018-10-06T11:46:38.675Z,3.07
2018-10-06T11:49:06.247Z,2.90
2018-10-06T11:51:33.809Z,2.83
2018-10-06T11:54:01.434Z,2.70
2018-10-06T11:56:29.045Z,2.90
2018-10-06T11:58:56.604Z,2.40
2018-10-06T12:01:24.121Z,3.07
2018-10-06T12:03:51.659Z,3.00
2018-10-06T12:06:19.256Z,3.00
2018-10-06T12:08:46.803Z,3.03
2018-10-06T12:11:14.360Z,2.97
2018-10-06T12:13:41.943Z,2.93
2018-10-06T12:16:09.517Z,2.60
2018-10-06T12:18:37.081Z,2.60
2018-10-06T12:21:04.682Z,3.00
2018-10-06T12:23:32.262Z,2.10
2018-10-06T12:25:59.876Z,3.00
2018-10-06T12:28:27.417Z,2.90
2018-10-06T12:30:55.005Z,2.73
2018-10-06T12:33:22.579Z,2.60
2018-10-06T12:35:50.148Z,2.63
2018-10-06T12:38:17.836Z,2.77
2018-10-06T12:40:45.416Z,2.73
2018-10-06T12:43:13.020Z,2.63
2018-10-06T12:45:40.525Z,2.17
2018-10-06T12:48:08.096Z,2.43
2018-10-06T12:50:35.673Z,2.93
2018-10-06T12:53:03.269Z,2.40
2018-10-06T12:55:30.852Z,3.20
2018-10-06T12:57:58.406Z,2.60
2018-10-06T13:00:25.977Z,2.60
2018-10-06T13:02:53.548Z,2.30
2018-10-06T13:05:21.073Z,2.43
2018-10-06T13:07:48.731Z,2.57
2018-10-06T13:10:16.310Z,2.60
2018-10-06T13:12:43.841Z,2.50
2018-10-06T13:15:11.380Z,3.00
2018-10-06T13:17:38.974Z,2.37
2018-10-06T13:20:06.617Z,2.47
2018-10-06T13:22:34.179Z,2.43
2018-10-06T13:25:01.774Z,2.03
2018-10-06T13:27:29.330Z,2.23
2018-10-06T13:29:56.879Z,2.50
2018-10-06T13:32:24.432Z,3.00
2018-10-06T13:34:52.021Z,2.70
2018-10-06T13:37:19.550Z,2.80
2018-10-06T13:39:47.136Z,2.30
2018-10-06T13:42:14.764Z,2.60
2018-10-06T13:44:42.507Z,2.80
2018-10-06T13:47:10.093Z,3.20
2018-10-06T13:49:37.647Z,3.10
2018-10-06T13:52:05.295Z,2.33
2018-10-06T13:54:32.860Z,2.37
2018-10-06T13:57:00.499Z,2.90
2018-10-06T13:59:28.069Z,2.60
2018-10-06T14:01:55.638Z,2.90
2018-10-06T14:04:23.205Z,2.03
2018-10-06T14:06:50.766Z,2.33
2018-10-06T14:09:18.341Z,2.50
2018-10-06T14:11:45.919Z,2.27
2018-10-06T14:14:13.442Z,2.60
2018-10-06T14:16:41.002Z,2.27
2018-10-06T14:19:08.623Z,2.43
2018-10-06T14:21:36.190Z,2.20
2018-10-06T14:24:03.753Z,2.23
2018-10-06T14:26:31.387Z,1.80
2018-10-06T14:28:58.887Z,2.20
2018-10-06T14:31:26.447Z,2.00
2018-10-06T14:33:54.153Z,2.10
2018-10-06T14:36:21.736Z,1.93
2018-10-06T14:38:49.297Z,2.60
2018-10-06T14:41:17.444Z,2.63
2018-10-06T14:43:45.039Z,2.47
2018-10-06T14:46:12.603Z,2.00
2018-10-06T14:48:40.155Z,2.37
2018-10-06T14:51:07.694Z,2.43
2018-10-06T14:53:35.257Z,3.03
2018-10-06T14:56:02.830Z,2.50
2018-10-06T14:58:30.460Z,2.30
2018-10-06T15:00:58.059Z,2.40
2018-10-06T15:03:25.608Z,2.70
2018-10-06T15:05:53.249Z,2.60
2018-10-06T15:08:20.762Z,2.80
2018-10-06T15:10:48.337Z,2.57
2018-10-06T15:13:15.920Z,2.40
2018-10-06T15:15:43.466Z,2.30
2018-10-06T15:18:11.006Z,1.83
2018-10-06T15:20:39.089Z,2.47
2018-10-06T15:23:07.036Z,2.30
2018-10-06T15:25:34.772Z,2.70
2018-10-06T15:28:02.404Z,2.37
2018-10-06T15:30:29.924Z,2.47
2018-10-06T15:32:57.473Z,2.30
2018-10-06T15:35:25.025Z,2.13
2018-10-06T15:37:52.633Z,2.40
2018-10-06T15:40:20.207Z,2.30
2018-10-06T15:42:47.803Z,2.30
2018-10-06T15:45:15.335Z,2.00
2018-10-06T15:47:43.001Z,2.00
2018-10-06T15:50:10.589Z,2.70
2018-10-06T15:52:38.131Z,2.17
2018-10-06T15:55:05.791Z,2.00
2018-10-06T15:57:33.388Z,2.50
2018-10-06T16:00:00.962Z,1.90
2018-10-06T16:02:28.543Z,1.97
2018-10-06T16:04:56.124Z,2.20
2018-10-06T16:07:23.690Z,2.23
2018-10-06T16:09:51.234Z,2.80
2018-10-06T16:12:18.877Z,2.40
2018-10-06T16:14:46.886Z,2.13
2018-10-06T16:17:14.461Z,2.77
2018-10-06T16:19:42.477Z,2.00
2018-10-06T16:22:10.159Z,2.30
2018-10-06T16:24:37.693Z,2.53
2018-10-06T16:27:05.338Z,2.90
2018-10-06T16:29:32.947Z,2.37
2018-10-06T16:32:00.556Z,2.80
2018-10-06T16:34:28.137Z,2.40
2018-10-06T16:36:55.734Z,2.30
2018-10-06T16:39:23.285Z,2.43
2018-10-06T16:41:50.862Z,3.00
2018-10-06T16:44:18.420Z,2.50
2018-10-06T16:46:46.011Z,2.60
2018-10-06T16:49:13.575Z,2.60
2018-10-06T16:51:41.148Z,2.87
2018-10-06T16:54:08.693Z,2.40
2018-10-06T16:56:36.313Z,2.80
2018-10-06T16:59:03.927Z,3.43
2018-10-06T17:01:31.503Z,3.13
2018-10-06T17:03:59.136Z,3.30
2018-10-06T17:06:26.756Z,3.37
2018-10-06T17:08:54.305Z,3.00
2018-10-06T17:11:21.866Z,2.70
2018-10-06T17:13:49.410Z,2.93
2018-10-06T17:16:16.966Z,3.07
2018-10-06T17:18:44.508Z,2.73
2018-10-06T17:21:12.011Z,2.80
2018-10-06T17:23:39.590Z,2.50
2018-10-06T17:26:07.163Z,3.50
2018-10-06T17:28:34.700Z,3.13
2018-10-06T17:31:02.375Z,4.07
2018-10-06T17:33:29.977Z,3.67
2018-10-06T17:35:57.615Z,4.27
2018-10-06T17:38:25.931Z,3.60
2018-10-06T17:40:53.570Z,3.40
2018-10-06T17:43:21.264Z,2.60
2018-10-06T17:45:48.901Z,3.70
2018-10-06T17:48:16.571Z,3.63
2018-10-06T17:50:44.370Z,3.77
2018-10-06T17:53:11.862Z,4.83
2018-10-06T17:55:39.496Z,4.00
2018-10-06T17:58:07.316Z,3.63
2018-10-06T18:00:34.792Z,4.73
2018-10-06T18:03:02.548Z,8.47
2018-10-06T18:05:30.292Z,10.50
2018-10-06T18:07:58.031Z,7.87
2018-10-06T18:10:25.649Z,7.07
2018-10-06T18:12:53.330Z,5.87
2018-10-06T18:15:21.970Z,5.43
2018-10-06T18:17:49.642Z,5.50
2018-10-06T18:20:18.310Z,4.60
2018-10-06T18:22:45.939Z,4.90
2018-10-06T18:25:13.591Z,4.77
2018-10-06T18:27:41.284Z,5.10
2018-10-06T18:30:08.891Z,4.10
2018-10-06T18:32:36.551Z,3.90
2018-10-06T18:35:04.257Z,5.20
2018-10-06T18:37:31.952Z,4.83
2018-10-06T18:39:59.699Z,5.60
2018-10-06T18:42:28.177Z,5.80
2018-10-06T18:44:55.831Z,7.07
2018-10-06T18:47:23.471Z,4.73
2018-10-06T18:49:51.092Z,5.20
2018-10-06T18:52:18.844Z,6.00
2018-10-06T18:54:46.729Z,5.87
2018-10-06T18:57:14.366Z,5.47
2018-10-06T18:59:42.277Z,5.60
2018-10-06T19:02:10.277Z,5.83
2018-10-06T19:04:38.229Z,6.80
2018-10-06T19:07:06.233Z,8.10
2018-10-06T19:09:34.261Z,6.33
2018-10-06T19:12:02.325Z,5.80
2018-10-06T19:14:30.405Z,8.00
2018-10-06T19:16:58.426Z,9.03
2018-10-06T19:19:26.464Z,8.30
2018-10-06T19:21:54.735Z,7.40
2018-10-06T19:24:22.719Z,7.67
2018-10-06T19:26:50.992Z,8.57
2018-10-06T19:29:19.574Z,9.07
2018-10-06T19:31:47.856Z,11.00
2018-10-06T19:34:15.881Z,9.60
2018-10-06T19:36:43.874Z,8.37
2018-10-06T19:39:11.868Z,8.90
2018-10-06T19:41:40.732Z,9.63
2018-10-06T19:44:08.808Z,9.57
2018-10-06T19:46:36.987Z,8.80
2018-10-06T19:49:05.099Z,10.20
2018-10-06T19:51:33.367Z,9.40
2018-10-06T19:54:01.401Z,9.40
2018-10-06T19:56:29.494Z,11.07
2018-10-06T19:58:57.606Z,11.30
2018-10-06T20:01:25.644Z,10.30
2018-10-06T20:03:53.651Z,10.13
2018-10-06T20:06:21.679Z,10.00
2018-10-06T20:08:49.705Z,9.73
2018-10-06T20:11:17.755Z,8.27
2018-10-06T20:13:45.822Z,9.07
2018-10-06T20:16:14.780Z,10.60
2018-10-06T20:18:42.867Z,9.10
2018-10-06T20:21:10.881Z,10.03
2018-10-06T20:23:38.818Z,9.37
2018-10-06T20:26:07.162Z,8.80
2018-10-06T20:28:34.912Z,9.23
2018-10-06T20:31:03.396Z,9.37
2018-10-06T20:33:31.754Z,9.90
2018-10-06T20:35:59.463Z,10.73
2018-10-06T20:38:27.196Z,10.43
2018-10-06T20:40:54.959Z,9.63
2018-10-06T20:43:22.664Z,9.20
2018-10-06T20:45:50.354Z,8.83
2018-10-06T20:48:18.081Z,9.27
2018-10-06T20:50:45.763Z,9.23
2018-10-06T20:53:13.524Z,10.40
2018-10-06T20:55:41.441Z,10.43
2018-10-06T20:58:09.131Z,11.20
2018-10-06T21:00:36.881Z,9.77
2018-10-06T21:03:04.821Z,10.87
2018-10-06T21:05:32.687Z,9.97
2018-10-06T21:08:00.466Z,6.60
2018-10-06T21:10:28.259Z,7.40
2018-10-06T21:12:59.013Z,11.10
2018-10-06T21:15:26.771Z,10.33
2018-10-06T21:17:54.472Z,7.07
2018-10-06T21:20:22.223Z,7.67
2018-10-06T21:22:49.874Z,7.17
2018-10-06T21:25:17.567Z,7.80
2018-10-06T21:27:45.284Z,7.57
2018-10-06T21:30:12.975Z,8.80
2018-10-06T21:32:40.675Z,8.40
2018-10-06T21:35:08.459Z,10.33
2018-10-06T21:37:36.053Z,9.00
2018-10-06T21:40:03.689Z,9.10
2018-10-06T21:42:31.303Z,8.67
2018-10-06T21:44:59.207Z,9.13
2018-10-06T21:47:26.829Z,8.67
2018-10-06T21:49:54.378Z,9.30
2018-10-06T21:52:21.924Z,9.50
2018-10-06T21:54:49.488Z,8.63
2018-10-06T21:57:17.116Z,9.20
2018-10-06T21:59:44.646Z,11.60
2018-10-06T22:02:12.201Z,8.93
2018-10-06T22:04:39.761Z,8.70
2018-10-06T22:07:07.353Z,7.83
2018-10-06T22:09:34.901Z,8.50
2018-10-06T22:12:02.535Z,9.93
2018-10-06T22:14:30.146Z,10.00
2018-10-06T22:16:57.736Z,9.40
2018-10-06T22:19:25.356Z,9.53
2018-10-06T22:21:52.894Z,10.10
2018-10-06T22:26:56.323Z,10.70
2018-10-06T22:29:23.849Z,11.30
2018-10-06T22:31:51.395Z,10.60
2018-10-06T22:34:18.980Z,10.50
2018-10-06T22:36:46.532Z,12.10
2018-10-06T22:39:14.121Z,15.27
2018-10-06T22:41:41.661Z,11.50
2018-10-06T22:44:09.208Z,11.83
2018-10-06T22:46:36.748Z,20.17
2018-10-06T22:49:04.418Z,15.23
2018-10-06T22:51:32.130Z,12.27
2018-10-06T22:53:59.814Z,12.97
2018-10-06T22:56:27.550Z,11.00
2018-10-06T22:58:55.170Z,11.50
2018-10-06T23:01:22.682Z,11.60
2018-10-06T23:03:50.213Z,12.07
2018-10-06T23:06:17.769Z,11.53
2018-10-06T23:08:45.346Z,12.03
2018-10-06T23:11:12.888Z,11.30
2018-10-06T23:13:40.434Z,9.70
2018-10-06T23:16:07.993Z,9.90
2018-10-06T23:18:35.686Z,9.57
2018-10-06T23:21:05.001Z,10.90
2018-10-06T23:23:32.769Z,10.10
2018-10-06T23:26:00.443Z,9.27
2018-10-06T23:28:28.020Z,8.90
2018-10-06T23:30:55.560Z,9.67
2018-10-06T23:33:23.103Z,10.03
2018-10-06T23:35:50.680Z,8.70
2018-10-06T23:38:18.254Z,10.10
2018-10-06T23:40:45.833Z,9.13
2018-10-06T23:43:13.392Z,9.20
2018-10-06T23:45:40.963Z,8.50
2018-10-06T23:48:08.506Z,8.80
2018-10-06T23:50:36.064Z,8.57
2018-10-06T23:53:03.626Z,8.93
2018-10-06T23:55:31.241Z,9.00
2018-10-06T23:57:58.886Z,8.97
